Catàleg de serveis del Meteocat

Dades de l'estació automàtica Os de Balaguer - el Monestir d'Avellanes

?
?
Resum diari 23:00 TU
Dades diàries de l'estació meteorològica
Temperatura mitjana 6.6 °C
Temperatura màxima 8.4 °C 13:59 TU
Temperatura mínima 4.7 °C 18:28 TU
Humitat relativa mitjana 97%
Precipitació acumulada 3.3 mm
Ratxa màxima del vent (6 m) 17.3 km/h - 297º 16:15 TU
Irradiació solar global 2.7 MJ/m2

El tram horari està expressat en Temps Universal (TU). Cal sumar una hora en horari d'hivern i dues en horari d'estiu per passar a l'hora oficial.

Os de Balaguer - el Monestir d'Avellanes

Metadades estació meteorol´gica
Municipi Os de Balaguer
Comarca Noguera
Altitud 576 m
Data alta 07.07.1995
Estat actual Operativa
Dades de període
Període
TU
TM
°C
TX
°C
TN
°C
HRM
%
PPT
mm
VVM (6 m)
km/h
DVM (6 m)
graus
VVX (6 m)
km/h
RS
W/m2
00:00 - 00:30 7.8 7.8 7.7 97 0.0 0.4 188 4.0 0
00:30 - 01:00 7.6 7.7 7.6 97 0.0 1.1 219 6.1 0
01:00 - 01:30 7.2 7.6 6.9 97 0.0 0.4 198 5.0 0
01:30 - 02:00 6.9 7.1 6.5 98 0.0 0.4 83 3.6 0
02:00 - 02:30 6.5 6.7 6.1 98 0.0 1.1 88 4.3 0
02:30 - 03:00 6.1 6.2 6.0 98 0.0 0.7 65 4.0 0
03:00 - 03:30 6.2 6.2 6.1 99 0.0 0.7 33 2.9 0
03:30 - 04:00 6.1 6.2 5.7 99 0.0 1.1 37 3.6 0
04:00 - 04:30 5.8 5.8 5.7 99 0.0 0.7 104 4.3 0
04:30 - 05:00 5.8 5.9 5.7 99 0.0 1.4 86 4.7 0
05:00 - 05:30 5.9 6.1 5.7 99 0.0 1.8 358 5.4 0
05:30 - 06:00 6.0 6.1 5.6 99 0.0 1.8 28 4.7 0
06:00 - 06:30 5.7 5.8 5.5 99 0.0 1.8 62 6.1 5
06:30 - 07:00 5.9 5.9 5.8 99 0.0 2.2 54 5.8 6
07:00 - 07:30 6.1 6.1 5.9 99 0.1 1.8 53 4.7 11
07:30 - 08:00 6.2 6.4 6.1 99 0.0 1.4 45 5.4 19
08:00 - 08:30 6.5 6.6 6.4 99 0.1 4.0 73 9.0 34
08:30 - 09:00 6.8 7.1 6.6 99 0.0 5.0 74 10.1 56
09:00 - 09:30 7.1 7.5 6.9 98 0.0 4.3 78 9.4 85
09:30 - 10:00 7.6 7.8 7.5 95 0.0 4.0 63 9.0 101
10:00 - 10:30 7.7 7.8 7.6 93 0.0 2.5 95 7.2 73
10:30 - 11:00 7.6 7.8 7.4 93 0.0 5.0 106 10.4 65
11:00 - 11:30 7.6 7.7 7.5 94 0.4 4.3 77 10.4 92
11:30 - 12:00 7.7 8.0 7.6 94 0.0 5.0 64 10.8 125
12:00 - 12:30 8.1 8.3 8.0 92 0.0 6.1 65 14.0 160
12:30 - 13:00 8.0 8.3 7.7 92 0.0 7.2 63 15.5 96
13:00 - 13:30 7.8 8.1 7.7 92 0.0 4.7 46 10.8 92
13:30 - 14:00 8.2 8.4 8.1 89 0.0 7.6 59 16.9 161
14:00 - 14:30 8.2 8.4 8.1 90 0.0 7.9 50 14.8 100
14:30 - 15:00 8.0 8.1 7.9 92 0.0 7.2 57 13.7 70
15:00 - 15:30 7.8 7.9 7.7 92 0.0 7.6 68 14.4 47
15:30 - 16:00 7.5 7.7 7.3 93 0.4 6.8 60 14.0 17
16:00 - 16:30 7.1 7.3 7.0 97 2.1 6.5 354 17.3 7
16:30 - 17:00 7.0 7.0 7.0 98 0.2 3.2 30 10.1 5
17:00 - 17:30 6.8 7.0 6.5 98 0.0 3.2 16 8.3 5
17:30 - 18:00 6.0 6.5 5.3 98 0.0 3.2 54 9.0 4
18:00 - 18:30 5.0 5.2 4.7 98 0.0 1.8 20 4.0 4
18:30 - 19:00 5.2 5.4 4.9 99 0.0 2.5 7 6.1 4
19:00 - 19:30 5.5 5.7 5.2 99 0.0 1.4 22 4.7 5
19:30 - 20:00 5.7 5.9 5.6 99 0.0 2.2 40 7.2 5
20:00 - 20:30 5.9 6.0 5.7 99 0.0 2.9 54 5.8 5
20:30 - 21:00 5.6 5.8 5.4 98 0.0 1.8 51 6.1 4
21:00 - 21:30 5.6 5.7 5.5 98 0.0 0.7 53 4.3 5
21:30 - 22:00 5.4 5.6 5.2 99 0.0 2.2 7 5.8 5
22:00 - 22:30 5.7 5.9 5.5 98 0.0 2.5 35 5.8 5
22:30 - 23:00 5.9 5.9 5.9 98 0.0 2.2 29 4.3 5
23:00 - 23:30 6.0 6.0 5.9 98 0.0 1.8 70 3.2 5

Les dades en taronja només han passat un control de qualitat automàtic. Resta pendent la seva validació definitiva.